Wallingford, Iowa
Current Conditions -  °F | °C
As of 1:52 PM on Wednesday 28 Jan 2015 (Local Time) from KEST Reporting Station
Haze Haze  
Wind Chill: 19°   Ceiling: 600
Heat Index: 31°   Visibility: 2.5mi
Dew Point: 30°   Wind: 17mph
Humidity: 96%   Direction: 140°SE
Pressure: 29.73"   Gusts: NA
Location:  43.32°N, 94.79°W
Report Text: KEST 281952Z AUTO 14015KT 2 1/2SM BR OVC006 M01/M01 A2973 RMK AO2 SLP080 T10061011
Loading
Personal Weather Stations






























Interactive Weather Map New forecast layout! Learn more

10-Day Weather Forecast

Advertisements
Track Severe Weather on mobile